WetterOnline ( https://www.wetteronline.de )

Wetter aktuell Waibstadt

Aktuelles Wetter: Waibstadt (237m)

6-stündlich | Neueste Meldungen
Ortszeit Temperatur Wetter
Di, 27.09. 8:00 9.0° C leichter Regen
Di, 27.09. 2:00 9.5° C Sprühregen
Mo, 26.09. 20:00 11.5° C bewölkt
Mo, 26.09. 14:00 13.7° C wolkig
Mo, 26.09. 8:00 7.2° C Nebel
Mo, 26.09. 2:00 9.9° C leicht bewölkt
So, 25.09. 20:00 11.9° C bewölkt
So, 25.09. 14:00 13.2° C leichter Regen
Ortszeit Temperatur Wetter
Di, 27.09. 13:00 8.4° C leichter Regen
Di, 27.09. 12:30 9.4° C Regen
Di, 27.09. 12:20 9.4° C Regen
Di, 27.09. 12:10 9.8° C leichter Regen
Di, 27.09. 12:00 10.5° C Regen
Di, 27.09. 11:50 10.5° C bewölkt
Di, 27.09. 11:30 9.9° C leichter Regen
Di, 27.09. 11:00 10.1° C leichter Regen
Di, 27.09. 10:30 9.4° C leichter Regen
Di, 27.09. 10:00 9.1° C leichter Regen
Ortszeit Relative Feuchte Sichtweite
Di, 27.09. 8:00 96% 20 km
Di, 27.09. 2:00 92% 10 km
Mo, 26.09. 20:00 86% 50 km
Mo, 26.09. 14:00 81% 45 km
Mo, 26.09. 8:00 98% 100 m
Mo, 26.09. 2:00 98% 4.7 km
So, 25.09. 20:00 89% 35 km
So, 25.09. 14:00 95% 10 km
Ortszeit Relative Feuchte Sichtweite
Di, 27.09. 13:00 95% 11 km
Di, 27.09. 12:30 92% 3.9 km
Di, 27.09. 12:20 92% -
Di, 27.09. 12:10 87% -
Di, 27.09. 12:00 85% 55 km
Di, 27.09. 11:50 85% -
Di, 27.09. 11:30 90% 40 km
Di, 27.09. 11:00 90% 40 km
Di, 27.09. 10:30 91% 45 km
Di, 27.09. 10:00 92% 40 km
Ortszeit Niederschlagsmenge Niederschlagsart
Di, 27.09. 8:00 9 l/m2 in 12 Std. Regen
Di, 27.09. 2:00 4 l/m2 in 6 Std. Regen
Mo, 26.09. 20:00 4 l/m2 in 12 Std. Regen
Mo, 26.09. 14:00 0.5 l/m2 in 6 Std. Regen
Mo, 26.09. 8:00 0.0 l/m2 in 12 Std. -
Mo, 26.09. 2:00 0.0 l/m2 in 6 Std. -
So, 25.09. 20:00 5 l/m2 in 12 Std. Regen
So, 25.09. 14:00 5 l/m2 in 6 Std. Regen
Ortszeit Niederschlagsmenge Niederschlagsart
Di, 27.09. 13:00 5.6 l/m2 in 1 Std. Regen
Di, 27.09. 12:30 0.5 l/m2 in 1 Std. -
Di, 27.09. 12:20 keine Meldung -
Di, 27.09. 12:10 keine Meldung -
Di, 27.09. 12:00 0.1 l/m2 in 1 Std. Regen
Di, 27.09. 11:50 keine Meldung -
Di, 27.09. 11:30 0.1 l/m2 in 1 Std. -
Di, 27.09. 11:00 <0.05 l/m2 in 1 Std. Regen
Di, 27.09. 10:30 <0.05 l/m2 in 1 Std. -
Di, 27.09. 10:00 <0.05 l/m2 in 1 Std. Regen
Ortszeit Stärke Spitze Richtung
km/h Bft. km/h Grad Sektor
Di, 27.09. 8:00 22 4 47 250° W
Di, 27.09. 2:00 22 4 40 240° SW
Mo, 26.09. 20:00 9 2 46 190° S
Mo, 26.09. 14:00 9 2 37 220° SW
Mo, 26.09. 8:00 2 1 22 140° SO
Mo, 26.09. 2:00 11 2 18 270° W
So, 25.09. 20:00 6 1 20 350° N
So, 25.09. 14:00 9 2 19 260° W
Ortszeit Stärke Spitze Richtung
km/h Bft. km/h Grad Sektor
Di, 27.09. 13:00 20 4 37 270° W
Di, 27.09. 12:30 22 4 36 260° W
Di, 27.09. 12:20 22 4 - 260° W
Di, 27.09. 12:10 19 3 - 250° W
Di, 27.09. 12:00 18 3 36 250° W
Di, 27.09. 11:50 18 3 - 250° W
Di, 27.09. 11:30 22 4 36 250° W
Di, 27.09. 11:00 22 4 35 250° W
Di, 27.09. 10:30 20 4 35 250° W
Di, 27.09. 10:00 22 4 36 260° W
Ortszeit Untergrenze Bedeckung Gattung
total tief tief mittel hoch
Di, 27.09. 8:00 240 m 7/8 7/8 - - -
Di, 27.09. 2:00 390 m 7/8 7/8 - - -
Mo, 26.09. 20:00 1320 m 8/8 7/8 - - -
Mo, 26.09. 14:00 1290 m 5/8 5/8 - - -
Mo, 26.09. 8:00 <30 m 5/8 0/8 - - -
Mo, 26.09. 2:00 60 m 4/8 4/8 - - -
So, 25.09. 20:00 510 m 7/8 7/8 - - -
So, 25.09. 14:00 300 m 6/8 6/8 - - -
Ortszeit Bedeckungsgrad in Achtel und Wolkenuntergrenze
Di, 27.09. 13:00 1(90m) 3(540m)
Di, 27.09. 12:30 3(480m) 4(600m) 6(810m)
Di, 27.09. 12:20 3(480m) 4(600m) 6(810m)
Di, 27.09. 12:10 7
Di, 27.09. 12:00 2(540m) 7(1500m) 7(3000m)
Di, 27.09. 11:50 2(540m) 7(1500m) 7(3000m)
Di, 27.09. 11:30 2(480m) 6(1200m) 7(1500m)
Di, 27.09. 11:00 4(1230m)
Di, 27.09. 10:30 1(300m) 7(2400m) 7(3900m)
Di, 27.09. 10:00 1(300m) 7(1500m) 7(3900m)
Ortszeit Luftdruck NN (hPa) Tendenz (hPa in 3 Std.)
Di, 27.09. 8:00 1000 + 1,7
Di, 27.09. 2:00 999 - 2,4
Mo, 26.09. 20:00 1002 - 2,0
Mo, 26.09. 14:00 1006 - 1,7
Mo, 26.09. 8:00 1010 - 1,6
Mo, 26.09. 2:00 1013 - 0,7
So, 25.09. 20:00 1013 + 0,6
So, 25.09. 14:00 1012 - 0,2
Ortszeit Luftdruck NN (hPa) Tendenz (hPa in 3 Std.)
Di, 27.09. 13:00 1002 + 0,7
Di, 27.09. 12:30 1002 + 1,1
Di, 27.09. 12:20 1002 keine Meldung
Di, 27.09. 12:10 1002 keine Meldung
Di, 27.09. 12:00 1002 + 1,4
Di, 27.09. 11:50 1002 keine Meldung
Di, 27.09. 11:30 1002 + 1,6
Di, 27.09. 11:00 1002 + 1,7
Di, 27.09. 10:30 1002 + 2,2
Di, 27.09. 10:00 1002 + 2,1
Ortszeit Schneehöhe (cm)
Di, 27.09. 8:00 0
Di, 27.09. 2:00 0
Mo, 26.09. 20:00 0
Mo, 26.09. 14:00 0
Mo, 26.09. 8:00 0
Mo, 26.09. 2:00 0
So, 25.09. 20:00 0
So, 25.09. 14:00 0
Ortszeit Schneehöhe (cm)
Di, 27.09. 13:00 0
Di, 27.09. 12:30 0
Di, 27.09. 12:20 0
Di, 27.09. 12:10 0
Di, 27.09. 12:00 0
Di, 27.09. 11:50 0
Di, 27.09. 11:30 0
Di, 27.09. 11:00 0
Di, 27.09. 10:30 0
Di, 27.09. 10:00 0
Link zu dieser Seite / Seite empfehlen

Das Wetter in ...